Time;durP1;ratioP1;P1;durP2;ratioP2;P2;SDS_P1;SDS_P2;PMS_P1;PMS_P2;Temp;Humidity;BMP_temperature;BMP_pressure;BME280_temperature;BME280_humidity;BME280_pressure;Samples;Min_cycle;Max_cycle;Signal;HPM_P1;HPM_P2
2023/04/05 00:00:49;;;;;;;4.70;3.40;;;0.10;99.90;;;;;;477638;249;27920;-74
2023/04/05 00:02:49;;;;;;;4.05;3.65;;;0.10;99.90;;;;;;477600;249;27432;-74
2023/04/05 00:04:53;;;;;;;5.68;4.22;;;0.00;99.90;;;;;;477500;249;27482;-74
2023/04/05 00:06:52;;;;;;;5.80;4.30;;;0.00;99.90;;;;;;477466;249;27446;-74
2023/04/05 00:08:54;;;;;;;5.47;3.78;;;0.00;99.90;;;;;;477663;249;27533;-74
2023/04/05 00:10:54;;;;;;;4.68;3.62;;;0.00;99.90;;;;;;477600;249;27849;-74
2023/04/05 00:12:55;;;;;;;6.00;3.78;;;0.10;99.90;;;;;;477662;249;27524;-74
2023/04/05 00:14:57;;;;;;;4.60;3.22;;;0.10;99.90;;;;;;477561;249;27536;-74
2023/04/05 00:16:58;;;;;;;4.12;3.83;;;0.10;99.90;;;;;;477614;249;27473;-74
2023/04/05 00:19:00;;;;;;;6.10;3.90;;;0.00;99.90;;;;;;477653;249;27445;-74
2023/04/05 00:21:00;;;;;;;5.70;4.15;;;-0.10;99.90;;;;;;477607;249;27397;-74
2023/04/05 00:23:02;;;;;;;4.30;3.90;;;-0.10;99.90;;;;;;477666;249;27940;-74
2023/04/05 00:25:03;;;;;;;7.50;4.10;;;-0.20;99.90;;;;;;477611;249;27848;-74
2023/04/05 00:27:04;;;;;;;5.53;4.25;;;-0.30;99.90;;;;;;477641;249;27936;-74
2023/04/05 00:29:06;;;;;;;6.20;4.20;;;-0.40;99.90;;;;;;477665;249;27425;-74
2023/04/05 00:31:07;;;;;;;6.57;4.03;;;-0.40;99.90;;;;;;477675;249;27382;-73
2023/04/05 00:33:08;;;;;;;4.37;3.55;;;-0.40;99.90;;;;;;477610;249;27541;-74
2023/04/05 00:35:09;;;;;;;4.28;3.80;;;-0.50;99.90;;;;;;477590;249;27417;-74
2023/04/05 00:37:10;;;;;;;5.12;3.15;;;-0.50;99.90;;;;;;477647;249;27460;-74
2023/04/05 00:39:12;;;;;;;4.35;3.45;;;-0.60;99.90;;;;;;477653;249;27558;-74
2023/04/05 00:41:13;;;;;;;6.35;3.58;;;-0.60;99.90;;;;;;477634;249;27402;-74
2023/04/05 00:43:14;;;;;;;4.45;3.70;;;-0.50;99.90;;;;;;477662;249;27957;-73
2023/04/05 00:45:16;;;;;;;3.97;3.53;;;-0.60;99.90;;;;;;477591;249;27955;-73
2023/04/05 00:47:17;;;;;;;9.70;3.92;;;-0.60;99.90;;;;;;477609;249;27484;-74
2023/04/05 00:49:18;;;;;;;4.47;4.03;;;-0.60;99.90;;;;;;477657;249;27487;-74
2023/04/05 00:51:19;;;;;;;3.97;3.53;;;-0.60;99.90;;;;;;477655;249;27477;-74
2023/04/05 00:53:21;;;;;;;7.97;4.18;;;-0.60;99.90;;;;;;477629;249;27540;-74
2023/04/05 00:55:22;;;;;;;4.93;3.60;;;-0.50;99.90;;;;;;477579;249;27457;-73
2023/04/05 00:57:23;;;;;;;5.30;3.87;;;-0.50;99.90;;;;;;477593;249;27414;-74
2023/04/05 00:59:24;;;;;;;4.22;3.50;;;-0.50;99.90;;;;;;477671;249;27446;-74
2023/04/05 01:01:26;;;;;;;5.75;3.70;;;-0.50;99.90;;;;;;477652;249;27415;-74
2023/04/05 01:03:27;;;;;;;6.00;4.03;;;-0.50;99.90;;;;;;477632;249;27944;-74
2023/04/05 01:05:28;;;;;;;5.75;3.90;;;-0.50;99.90;;;;;;477569;249;27967;-73
2023/04/05 01:07:29;;;;;;;5.43;3.90;;;-0.40;99.90;;;;;;477622;249;27468;-74
2023/04/05 01:09:31;;;;;;;5.12;4.12;;;-0.40;99.90;;;;;;477622;249;27438;-73
2023/04/05 01:11:32;;;;;;;4.70;4.20;;;-0.40;99.90;;;;;;477630;249;27488;-74
2023/04/05 01:13:33;;;;;;;4.87;4.07;;;-0.50;99.90;;;;;;477633;249;27438;-74
2023/04/05 01:15:35;;;;;;;4.70;4.00;;;-0.40;99.90;;;;;;477578;249;27406;-74
2023/04/05 01:17:37;;;;;;;6.70;4.43;;;-0.50;99.90;;;;;;477603;249;27438;-74
2023/04/05 01:19:40;;;;;;;5.00;4.50;;;-0.50;99.90;;;;;;477528;249;27524;-74
2023/04/05 01:21:38;;;;;;;5.95;4.37;;;-0.60;99.90;;;;;;477389;249;27947;-73
2023/04/05 01:23:39;;;;;;;8.60;4.82;;;-0.50;99.90;;;;;;477612;249;27490;-74
2023/04/05 01:25:41;;;;;;;6.32;4.47;;;-0.50;99.90;;;;;;477577;249;27533;-74
2023/04/05 01:27:42;;;;;;;6.47;4.32;;;-0.50;99.90;;;;;;477604;248;27453;-74
2023/04/05 01:29:43;;;;;;;4.78;4.00;;;-0.50;99.90;;;;;;477660;249;27881;-73
2023/04/05 01:31:45;;;;;;;7.07;4.50;;;-0.50;99.90;;;;;;477609;249;27390;-74
2023/04/05 01:33:46;;;;;;;15.80;5.07;;;-0.50;99.90;;;;;;477555;249;27437;-75
2023/04/05 01:35:47;;;;;;;5.95;4.65;;;-0.60;99.90;;;;;;477591;249;27514;-74
2023/04/05 01:37:48;;;;;;;4.53;4.10;;;-0.70;99.90;;;;;;477599;249;27976;-73
2023/04/05 01:39:49;;;;;;;4.68;3.75;;;-0.70;99.90;;;;;;477650;249;29113;-74
2023/04/05 01:41:51;;;;;;;6.97;4.22;;;-0.70;99.90;;;;;;477675;249;27393;-74
2023/04/05 01:43:52;;;;;;;6.35;4.00;;;-0.80;99.90;;;;;;477625;249;27424;-74
2023/04/05 01:45:53;;;;;;;6.40;4.50;;;-0.80;99.90;;;;;;477571;249;27471;-74
2023/04/05 01:47:54;;;;;;;6.40;4.03;;;-0.90;99.90;;;;;;477640;249;27517;-74
2023/04/05 01:49:56;;;;;;;10.35;4.80;;;-0.90;99.90;;;;;;477682;249;28073;-74
2023/04/05 01:51:57;;;;;;;4.93;3.80;;;-0.90;99.90;;;;;;477656;249;27414;-74
2023/04/05 01:53:58;;;;;;;4.25;3.80;;;-0.90;99.90;;;;;;477627;249;27488;-74
2023/04/05 01:56:00;;;;;;;4.62;4.22;;;-1.00;99.90;;;;;;477528;249;27854;-74
2023/04/05 01:58:01;;;;;;;5.05;4.10;;;-1.00;99.90;;;;;;477618;249;28036;-74
2023/04/05 02:00:03;;;;;;;4.32;3.83;;;-1.00;99.90;;;;;;477634;249;27976;-74
2023/04/05 02:02:03;;;;;;;5.22;4.22;;;-1.00;99.90;;;;;;477611;249;27574;-73
2023/04/05 02:04:04;;;;;;;4.80;4.35;;;-1.00;99.90;;;;;;477639;249;27422;-73
2023/04/05 02:06:06;;;;;;;4.65;4.20;;;-1.10;99.90;;;;;;477555;249;27468;-74
2023/04/05 02:08:07;;;;;;;6.22;4.00;;;-1.10;99.90;;;;;;477635;249;27422;-74
2023/04/05 02:10:08;;;;;;;4.65;3.80;;;-1.10;99.90;;;;;;477652;249;27516;-74
2023/04/05 02:12:09;;;;;;;3.83;3.45;;;-1.10;99.90;;;;;;477626;249;27391;-73
2023/04/05 02:14:11;;;;;;;3.87;3.55;;;-1.10;99.90;;;;;;477619;249;27441;-74
2023/04/05 02:16:12;;;;;;;4.80;4.25;;;-1.10;99.90;;;;;;477563;249;27866;-74
2023/04/05 02:18:13;;;;;;;7.07;4.07;;;-1.10;99.90;;;;;;477631;249;27885;-74
2023/04/05 02:20:15;;;;;;;6.20;4.60;;;-1.10;99.90;;;;;;477645;249;27957;-74
2023/04/05 02:22:16;;;;;;;5.57;4.30;;;-1.10;99.90;;;;;;477642;249;27401;-73
2023/04/05 02:24:17;;;;;;;7.47;4.60;;;-1.00;99.90;;;;;;477598;249;27440;-73
2023/04/05 02:26:18;;;;;;;3.90;3.58;;;-1.00;99.90;;;;;;477580;249;27505;-74
2023/04/05 02:28:19;;;;;;;8.23;5.25;;;-1.00;99.90;;;;;;477630;249;27502;-74
2023/04/05 02:30:21;;;;;;;4.60;4.20;;;-1.00;99.90;;;;;;477642;249;27433;-74
2023/04/05 02:32:22;;;;;;;5.00;3.90;;;-1.00;99.90;;;;;;477622;249;27492;-74
2023/04/05 02:34:23;;;;;;;4.20;3.80;;;-1.00;99.90;;;;;;477551;249;27438;-74
2023/04/05 02:36:27;;;;;;;4.70;4.07;;;-1.00;99.90;;;;;;477596;249;28745;-74
2023/04/05 02:38:26;;;;;;;8.95;4.78;;;-0.90;99.90;;;;;;477493;249;27937;-74
2023/04/05 02:40:27;;;;;;;6.15;4.35;;;-0.90;99.90;;;;;;477651;249;27984;-74
2023/04/05 02:42:28;;;;;;;6.15;4.28;;;-0.90;99.90;;;;;;477626;249;27529;-73
2023/04/05 02:44:30;;;;;;;4.45;4.05;;;-0.90;99.90;;;;;;477545;249;27563;-73
2023/04/05 02:46:31;;;;;;;6.28;4.53;;;-1.00;99.90;;;;;;477618;249;27393;-74
2023/04/05 02:48:32;;;;;;;7.50;4.40;;;-1.00;99.90;;;;;;477610;249;27497;-74
2023/04/05 02:50:33;;;;;;;5.12;4.05;;;-1.10;99.90;;;;;;477638;249;27826;-74
2023/04/05 02:52:36;;;;;;;5.82;4.60;;;-1.10;99.90;;;;;;477629;249;27493;-74
2023/04/05 02:54:36;;;;;;;6.55;4.72;;;-1.10;99.90;;;;;;477524;249;27942;-74
2023/04/05 02:56:37;;;;;;;4.53;4.12;;;-1.20;99.90;;;;;;477635;249;27860;-74
2023/04/05 02:58:39;;;;;;;5.20;4.80;;;-1.30;99.90;;;;;;477660;249;27442;-74
2023/04/05 03:00:40;;;;;;;4.85;3.92;;;-1.30;99.90;;;;;;477657;249;27460;-74
2023/04/05 03:02:41;;;;;;;6.00;4.70;;;-1.30;99.90;;;;;;477679;249;27401;-73
2023/04/05 03:04:43;;;;;;;9.05;5.05;;;-1.30;99.90;;;;;;477600;249;27464;-74
2023/04/05 03:06:47;;;;;;;5.25;4.53;;;-1.30;99.90;;;;;;477622;249;27426;-74
2023/04/05 03:08:45;;;;;;;9.70;5.55;;;-1.30;99.90;;;;;;477388;249;27582;-74
2023/04/05 03:10:46;;;;;;;6.28;5.15;;;-1.30;99.90;;;;;;477688;249;27442;-74
2023/04/05 03:12:47;;;;;;;8.30;5.40;;;-1.30;99.90;;;;;;477656;249;27880;-73
2023/04/05 03:14:48;;;;;;;6.43;4.70;;;-1.30;99.90;;;;;;477561;249;27917;-74
2023/04/05 03:16:50;;;;;;;14.40;4.95;;;-1.40;99.90;;;;;;477663;249;27943;-73
2023/04/05 03:18:52;;;;;;;7.20;5.00;;;-1.40;99.90;;;;;;477667;249;27517;-73
2023/04/05 03:20:55;;;;;;;7.22;5.80;;;-1.50;99.90;;;;;;477650;249;27465;-73
2023/04/05 03:22:56;;;;;;;5.85;5.35;;;-1.50;99.90;;;;;;477678;249;27530;-74
2023/04/05 03:24:58;;;;;;;5.68;5.15;;;-1.50;99.90;;;;;;477620;249;27433;-74
2023/04/05 03:27:01;;;;;;;5.28;4.53;;;-1.50;99.90;;;;;;477665;249;27557;-74
2023/04/05 03:29:00;;;;;;;5.90;4.75;;;-1.50;99.90;;;;;;477499;249;27386;-74
2023/04/05 03:31:01;;;;;;;5.37;4.87;;;-1.50;99.90;;;;;;477626;249;27433;-74
2023/04/05 03:33:03;;;;;;;9.63;5.35;;;-1.60;99.90;;;;;;477677;249;27487;-74
2023/04/05 03:35:04;;;;;;;6.12;5.10;;;-1.60;99.90;;;;;;477566;249;27382;-73
2023/04/05 03:37:05;;;;;;;8.15;5.20;;;-1.60;99.90;;;;;;477636;249;27477;-73
2023/04/05 03:39:07;;;;;;;7.80;5.30;;;-1.60;99.90;;;;;;477629;249;27401;-74
2023/04/05 03:41:08;;;;;;;7.45;5.32;;;-1.60;99.90;;;;;;477641;249;27504;-74
2023/04/05 03:43:09;;;;;;;6.12;5.15;;;-1.60;99.90;;;;;;477664;249;27953;-73
2023/04/05 03:45:10;;;;;;;7.62;5.68;;;-1.60;99.90;;;;;;477545;249;27921;-74
2023/04/05 03:47:12;;;;;;;7.62;5.37;;;-1.60;99.90;;;;;;477639;249;29153;-74
2023/04/05 03:49:14;;;;;;;8.18;5.03;;;-1.60;99.90;;;;;;477598;249;27399;-74
2023/04/05 03:51:15;;;;;;;4.75;4.35;;;-1.60;99.90;;;;;;477595;249;27441;-73
2023/04/05 03:53:17;;;;;;;6.93;5.50;;;-1.60;99.90;;;;;;477623;249;27552;-74
2023/04/05 03:55:17;;;;;;;8.32;5.20;;;-1.60;99.90;;;;;;477519;249;27448;-74
2023/04/05 03:57:18;;;;;;;6.20;5.05;;;-1.60;99.90;;;;;;477635;249;27472;-74
2023/04/05 03:59:19;;;;;;;7.05;4.80;;;-1.70;99.90;;;;;;477640;249;27406;-73
2023/04/05 04:01:21;;;;;;;6.32;5.20;;;-1.70;99.90;;;;;;477615;249;27520;-74
2023/04/05 04:03:22;;;;;;;8.13;5.25;;;-1.70;99.90;;;;;;477671;249;27913;-74
2023/04/05 04:05:23;;;;;;;5.82;4.70;;;-1.80;99.90;;;;;;477554;249;27937;-74
2023/04/05 04:07:25;;;;;;;6.35;5.28;;;-1.80;99.90;;;;;;477642;249;29027;-74
2023/04/05 04:09:28;;;;;;;5.97;4.80;;;-1.70;99.90;;;;;;477568;249;27468;-74
2023/04/05 04:11:27;;;;;;;6.47;5.47;;;-1.80;99.90;;;;;;477474;249;27496;-73
2023/04/05 04:13:28;;;;;;;7.00;5.50;;;-1.70;99.90;;;;;;477662;249;27558;-74
2023/04/05 04:15:30;;;;;;;7.97;5.75;;;-1.80;99.90;;;;;;477593;249;27489;-74
2023/04/05 04:17:30;;;;;;;7.30;5.55;;;-1.80;99.90;;;;;;477635;249;27455;-74
2023/04/05 04:19:32;;;;;;;7.35;5.75;;;-1.80;99.90;;;;;;477681;249;27398;-74
2023/04/05 04:21:34;;;;;;;10.73;5.53;;;-1.80;99.90;;;;;;477657;249;27413;-74
2023/04/05 04:23:37;;;;;;;7.03;5.87;;;-1.80;99.90;;;;;;477575;249;27938;-74
2023/04/05 04:25:36;;;;;;;6.05;5.45;;;-1.90;99.90;;;;;;477332;249;29062;-73
2023/04/05 04:27:38;;;;;;;5.93;5.30;;;-1.90;99.90;;;;;;477643;249;27469;-73
2023/04/05 04:29:45;;;;;;;6.75;4.90;;;-2.00;99.90;;;;;;477582;249;27511;-73
2023/04/05 04:31:39;;;;;;;6.80;5.60;;;-2.10;99.90;;;;;;477121;249;27437;-74
2023/04/05 04:33:42;;;;;;;5.85;5.25;;;-2.10;99.90;;;;;;477657;249;27504;-76
2023/04/05 04:35:45;;;;;;;8.25;4.60;;;-2.10;99.90;;;;;;477490;249;27493;-74
2023/04/05 04:37:45;;;;;;;7.95;5.72;;;-2.10;99.90;;;;;;477368;249;27442;-73
2023/04/05 04:39:46;;;;;;;5.50;4.87;;;-2.10;99.90;;;;;;477515;249;27478;-73
2023/04/05 04:41:46;;;;;;;5.22;4.55;;;-2.10;99.90;;;;;;477533;249;27883;-74
2023/04/05 04:43:47;;;;;;;5.90;5.30;;;-2.00;99.90;;;;;;477653;249;28022;-74
2023/04/05 04:45:48;;;;;;;5.57;5.07;;;-2.10;99.90;;;;;;477577;249;27973;-74
2023/04/05 04:47:52;;;;;;;6.35;5.45;;;-2.00;99.90;;;;;;477640;249;27472;-74
2023/04/05 04:49:50;;;;;;;7.47;5.28;;;-2.00;99.90;;;;;;477443;249;27389;-73
2023/04/05 04:51:52;;;;;;;6.85;5.80;;;-2.00;99.90;;;;;;477680;249;27511;-73
2023/04/05 04:53:53;;;;;;;6.87;5.37;;;-2.00;99.90;;;;;;477641;249;27453;-74
2023/04/05 04:55:56;;;;;;;8.18;5.70;;;-2.00;99.90;;;;;;477589;249;27405;-73
2023/04/05 04:57:55;;;;;;;8.18;4.70;;;-1.90;99.90;;;;;;477534;249;27524;-73
2023/04/05 04:59:57;;;;;;;6.37;5.40;;;-1.90;99.90;;;;;;477636;249;27410;-73
2023/04/05 05:01:58;;;;;;;5.40;4.90;;;-2.00;99.90;;;;;;477657;249;28273;-73
2023/04/05 05:03:59;;;;;;;5.82;5.32;;;-2.00;99.90;;;;;;477654;249;27994;-73
2023/04/05 05:06:01;;;;;;;6.05;5.12;;;-2.00;99.90;;;;;;477612;249;27861;-74
2023/04/05 05:08:02;;;;;;;5.07;4.68;;;-2.00;99.90;;;;;;477632;249;27438;-73
2023/04/05 05:10:03;;;;;;;7.60;5.65;;;-2.00;99.90;;;;;;477625;249;27437;-74
2023/04/05 05:12:04;;;;;;;8.20;5.45;;;-1.90;99.90;;;;;;477643;249;27473;-74
2023/04/05 05:14:05;;;;;;;9.48;6.20;;;-1.90;99.90;;;;;;477674;249;27445;-74
2023/04/05 05:16:07;;;;;;;5.97;4.70;;;-1.90;99.90;;;;;;477581;249;27401;-74
2023/04/05 05:18:09;;;;;;;8.35;5.90;;;-1.90;99.90;;;;;;477634;249;27628;-74
2023/04/05 05:20:09;;;;;;;7.50;5.47;;;-2.00;99.90;;;;;;477587;249;27397;-73
2023/04/05 05:22:10;;;;;;;6.50;5.15;;;-1.90;99.90;;;;;;477608;249;27901;-74
2023/04/05 05:24:13;;;;;;;9.60;5.32;;;-1.90;99.90;;;;;;477624;249;28022;-74
2023/04/05 05:26:13;;;;;;;7.75;5.85;;;-1.90;99.90;;;;;;477525;249;28946;-74
2023/04/05 05:28:15;;;;;;;6.28;5.03;;;-1.90;99.90;;;;;;477650;249;27468;-74
2023/04/05 05:30:15;;;;;;;7.28;5.25;;;-1.90;99.90;;;;;;477649;249;27494;-73
2023/04/05 05:32:17;;;;;;;6.80;5.45;;;-1.90;99.90;;;;;;477620;249;27540;-73
2023/04/05 05:34:18;;;;;;;6.22;5.32;;;-1.90;99.90;;;;;;477649;249;27998;-74
2023/04/05 05:36:19;;;;;;;11.80;5.50;;;-1.90;99.90;;;;;;477627;249;27453;-74
2023/04/05 05:38:21;;;;;;;10.20;5.50;;;-1.90;99.90;;;;;;477646;249;27528;-74
2023/04/05 05:40:22;;;;;;;5.68;5.18;;;-1.90;99.90;;;;;;477642;249;27389;-73
2023/04/05 05:42:23;;;;;;;6.43;5.28;;;-1.90;99.90;;;;;;477637;249;27418;-74
2023/04/05 05:44:24;;;;;;;8.73;5.95;;;-1.90;99.90;;;;;;477597;249;27851;-74
2023/04/05 05:46:26;;;;;;;7.70;5.68;;;-1.90;99.90;;;;;;477641;249;27959;-74
2023/04/05 05:48:27;;;;;;;6.00;5.25;;;-1.80;99.90;;;;;;477630;249;28021;-73
2023/04/05 05:50:31;;;;;;;9.13;5.95;;;-1.80;99.90;;;;;;477583;249;29017;-73
2023/04/05 05:52:29;;;;;;;6.03;5.43;;;-1.80;99.90;;;;;;477379;249;27442;-74
2023/04/05 05:54:31;;;;;;;6.25;5.53;;;-1.80;99.90;;;;;;477558;249;27565;-74
2023/04/05 05:56:32;;;;;;;6.65;5.57;;;-1.70;99.90;;;;;;477591;249;27402;-74
2023/04/05 05:58:33;;;;;;;10.63;6.05;;;-1.70;99.90;;;;;;477586;249;27430;-74
2023/04/05 06:00:35;;;;;;;10.55;5.87;;;-1.70;99.90;;;;;;477564;249;27393;-74
2023/04/05 06:02:36;;;;;;;7.70;5.37;;;-1.70;99.90;;;;;;477650;249;27497;-74
2023/04/05 06:04:37;;;;;;;6.20;5.47;;;-1.60;99.90;;;;;;477592;249;27430;-74
2023/04/05 06:06:39;;;;;;;7.70;5.40;;;-1.60;99.90;;;;;;477620;249;28020;-74
2023/04/05 06:08:39;;;;;;;5.95;5.18;;;-1.60;99.90;;;;;;477556;249;27925;-73
2023/04/05 06:10:41;;;;;;;6.60;5.53;;;-1.60;99.90;;;;;;477581;249;27472;-74
2023/04/05 06:12:42;;;;;;;6.50;5.90;;;-1.50;99.90;;;;;;477600;249;27433;-73
2023/04/05 06:14:43;;;;;;;5.20;4.70;;;-1.50;99.90;;;;;;477603;249;27524;-73
2023/04/05 06:16:45;;;;;;;5.82;5.22;;;-1.50;99.90;;;;;;477597;249;27406;-74
2023/04/05 06:18:46;;;;;;;6.65;5.50;;;-1.40;99.90;;;;;;477627;249;27537;-74
2023/04/05 06:20:47;;;;;;;7.87;5.35;;;-1.40;99.90;;;;;;477625;249;27446;-73
2023/04/05 06:22:48;;;;;;;6.37;4.82;;;-1.40;99.90;;;;;;477622;249;27461;-73
2023/04/05 06:24:49;;;;;;;7.55;5.20;;;-1.30;99.90;;;;;;477574;249;28118;-74
2023/04/05 06:26:51;;;;;;;8.00;5.10;;;-1.30;99.90;;;;;;477647;249;27915;-74
2023/04/05 06:28:53;;;;;;;4.87;4.37;;;-1.20;99.90;;;;;;477642;249;27984;-73
2023/04/05 06:30:53;;;;;;;7.05;4.85;;;-1.20;99.90;;;;;;477611;249;27448;-74
2023/04/05 06:32:54;;;;;;;6.60;4.80;;;-1.20;99.90;;;;;;477625;249;27520;-74
2023/04/05 06:34:56;;;;;;;5.50;5.00;;;-1.10;99.90;;;;;;477610;249;27433;-73
2023/04/05 06:36:57;;;;;;;6.00;4.95;;;-1.10;99.90;;;;;;477668;249;27484;-74
2023/04/05 06:38:58;;;;;;;6.95;4.87;;;-1.10;99.90;;;;;;477658;249;27442;-74
2023/04/05 06:40:59;;;;;;;9.73;5.10;;;-1.10;99.90;;;;;;477672;249;27420;-73
2023/04/05 06:43:01;;;;;;;5.72;4.75;;;-1.00;99.90;;;;;;477657;249;27430;-74
2023/04/05 06:45:03;;;;;;;7.45;4.95;;;-0.90;99.90;;;;;;477584;249;29258;-73
2023/04/05 06:47:03;;;;;;;6.43;5.62;;;-0.90;99.90;;;;;;477647;249;27976;-74
2023/04/05 06:49:04;;;;;;;6.95;5.00;;;-0.90;99.90;;;;;;477690;249;29025;-74
2023/04/05 06:51:06;;;;;;;4.75;4.28;;;-0.80;99.90;;;;;;477658;249;27473;-74
2023/04/05 06:53:07;;;;;;;7.25;4.55;;;-0.80;99.90;;;;;;477654;249;27432;-74
2023/04/05 06:55:08;;;;;;;5.30;4.80;;;-0.80;99.90;;;;;;477608;249;27441;-74
2023/04/05 06:57:09;;;;;;;6.20;5.07;;;-0.70;99.90;;;;;;477671;249;27432;-74
2023/04/05 06:59:11;;;;;;;5.65;4.70;;;-0.60;99.90;;;;;;477663;249;27436;-74
2023/04/05 07:01:12;;;;;;;8.82;5.70;;;-0.60;99.90;;;;;;477661;249;27389;-74
2023/04/05 07:03:13;;;;;;;7.82;5.30;;;-0.50;99.90;;;;;;477589;249;27468;-74
2023/04/05 07:05:14;;;;;;;6.45;5.37;;;-0.50;99.90;;;;;;477607;249;27957;-74
2023/04/05 07:07:16;;;;;;;7.75;5.20;;;-0.40;99.90;;;;;;477654;249;27853;-74
2023/04/05 07:09:17;;;;;;;6.00;5.03;;;-0.40;99.90;;;;;;477673;249;27953;-74
2023/04/05 07:11:18;;;;;;;6.25;5.32;;;-0.30;99.90;;;;;;477656;249;27436;-74
2023/04/05 07:13:19;;;;;;;7.30;6.60;;;-0.20;99.90;;;;;;477649;249;27481;-74
2023/04/05 07:15:21;;;;;;;8.13;6.20;;;-0.10;99.90;;;;;;477565;249;27503;-74
2023/04/05 07:17:22;;;;;;;4.93;4.43;;;0.00;99.90;;;;;;477648;249;27417;-74
2023/04/05 07:19:23;;;;;;;6.10;5.18;;;0.10;99.90;;;;;;477671;249;27433;-74
2023/04/05 07:21:25;;;;;;;9.45;5.60;;;0.20;99.90;;;;;;477636;249;27389;-74
2023/04/05 07:23:29;;;;;;;11.40;5.03;;;0.20;99.90;;;;;;477590;248;27457;-74
2023/04/05 07:25:27;;;;;;;6.10;4.95;;;0.30;99.90;;;;;;477140;249;27492;-73
2023/04/05 07:27:29;;;;;;;6.43;5.37;;;0.40;99.90;;;;;;477646;249;27933;-74
2023/04/05 07:29:29;;;;;;;8.13;4.90;;;0.60;99.90;;;;;;477672;249;27929;-74
2023/04/05 07:31:31;;;;;;;9.35;5.60;;;0.80;99.90;;;;;;477667;249;27961;-74
2023/04/05 07:33:32;;;;;;;9.50;6.40;;;1.50;99.90;;;;;;477645;249;27488;-74
2023/04/05 07:35:33;;;;;;;6.53;5.10;;;2.00;99.90;;;;;;477582;249;27397;-73
2023/04/05 07:37:35;;;;;;;8.25;5.65;;;2.20;99.90;;;;;;477619;249;27433;-74
2023/04/05 07:39:36;;;;;;;9.70;5.15;;;2.20;99.90;;;;;;477679;249;27508;-74
2023/04/05 07:41:37;;;;;;;5.00;4.50;;;2.20;99.90;;;;;;477683;249;27413;-74
2023/04/05 07:43:38;;;;;;;6.60;5.10;;;2.40;99.90;;;;;;477626;249;27462;-74
2023/04/05 07:45:40;;;;;;;5.40;4.53;;;2.50;99.90;;;;;;477592;249;27393;-74
2023/04/05 07:47:41;;;;;;;5.50;4.55;;;2.40;99.90;;;;;;477654;249;27457;-74
2023/04/05 07:49:42;;;;;;;6.10;4.80;;;2.40;99.90;;;;;;477696;249;27534;-74
2023/04/05 07:51:45;;;;;;;8.68;4.93;;;2.50;99.90;;;;;;477674;249;27398;-74
2023/04/05 07:53:45;;;;;;;5.68;4.20;;;2.70;99.90;;;;;;477588;249;27914;-74
2023/04/05 07:55:46;;;;;;;11.75;4.70;;;2.70;99.90;;;;;;477636;249;27870;-74
2023/04/05 07:57:47;;;;;;;5.90;4.60;;;2.80;99.90;;;;;;477662;249;28067;-74
2023/04/05 07:59:53;;;;;;;8.52;4.22;;;2.70;99.90;;;;;;477281;249;27887;-74
2023/04/05 08:01:50;;;;;;;6.80;4.55;;;2.60;99.90;;;;;;476825;249;27389;-74
2023/04/05 08:03:51;;;;;;;5.43;4.22;;;2.80;99.90;;;;;;477604;249;27434;-75
2023/04/05 08:05:52;;;;;;;4.90;3.70;;;2.80;99.90;;;;;;477571;249;27394;-74
2023/04/05 08:07:54;;;;;;;5.22;4.72;;;2.70;99.90;;;;;;477604;249;27421;-74
2023/04/05 08:09:56;;;;;;;5.55;4.45;;;2.80;99.90;;;;;;477649;248;27864;-74
2023/04/05 08:11:56;;;;;;;4.55;4.10;;;2.90;99.90;;;;;;477596;249;27410;-74
2023/04/05 08:13:57;;;;;;;9.30;4.97;;;3.10;99.90;;;;;;477654;249;27462;-74
2023/04/05 08:15:58;;;;;;;7.00;4.90;;;3.20;99.90;;;;;;477582;249;27440;-74
2023/04/05 08:18:00;;;;;;;6.55;5.07;;;3.20;99.90;;;;;;477618;249;27430;-74
2023/04/05 08:20:01;;;;;;;5.70;4.50;;;3.10;99.90;;;;;;477653;249;27470;-74
2023/04/05 08:22:02;;;;;;;4.95;4.50;;;3.10;99.90;;;;;;477652;249;27857;-74
2023/04/05 08:24:03;;;;;;;5.40;4.75;;;3.20;99.60;;;;;;477615;249;27906;-74
2023/04/05 08:26:06;;;;;;;7.30;5.45;;;3.30;99.90;;;;;;477559;249;28958;-74
2023/04/05 08:28:06;;;;;;;6.47;5.10;;;3.40;99.90;;;;;;477514;249;27895;-74
2023/04/05 08:30:07;;;;;;;6.75;4.60;;;3.50;99.90;;;;;;477631;249;27429;-74
2023/04/05 08:32:08;;;;;;;6.43;5.45;;;3.40;99.90;;;;;;477659;249;27434;-74
2023/04/05 08:34:10;;;;;;;8.45;5.55;;;3.40;99.70;;;;;;477633;249;27520;-74
2023/04/05 08:36:11;;;;;;;9.30;5.45;;;3.50;99.70;;;;;;477599;249;27473;-74
2023/04/05 08:38:12;;;;;;;7.25;4.70;;;3.70;98.80;;;;;;477576;249;27524;-74
2023/04/05 08:40:13;;;;;;;5.15;4.62;;;3.70;99.80;;;;;;477638;249;27446;-74
2023/04/05 08:42:15;;;;;;;6.28;4.68;;;3.70;99.60;;;;;;477669;249;27390;-74
2023/04/05 08:44:16;;;;;;;5.25;4.45;;;3.50;99.90;;;;;;477637;249;27563;-74
2023/04/05 08:46:17;;;;;;;5.00;4.50;;;3.60;99.90;;;;;;477609;249;27393;-75
2023/04/05 08:48:18;;;;;;;6.62;4.78;;;3.90;99.20;;;;;;477632;249;27524;-74
2023/04/05 08:50:20;;;;;;;13.75;5.07;;;3.70;97.60;;;;;;477664;249;27992;-74
2023/04/05 08:52:21;;;;;;;5.30;4.80;;;3.50;99.40;;;;;;477630;249;27869;-74
2023/04/05 08:54:22;;;;;;;4.55;4.15;;;3.50;99.90;;;;;;477565;249;27932;-74
2023/04/05 08:56:23;;;;;;;5.45;4.70;;;3.50;99.90;;;;;;477642;249;27389;-74
2023/04/05 08:58:25;;;;;;;5.37;4.87;;;3.50;99.90;;;;;;477619;249;27430;-74
2023/04/05 09:00:26;;;;;;;6.68;4.97;;;3.90;99.90;;;;;;477654;249;27553;-74
2023/04/05 09:02:27;;;;;;;5.12;4.62;;;3.90;96.90;;;;;;477602;249;27462;-74
2023/04/05 09:04:30;;;;;;;5.15;4.65;;;3.80;97.50;;;;;;477569;249;27516;-74
2023/04/05 09:06:30;;;;;;;7.75;5.70;;;3.80;96.80;;;;;;477536;249;27500;-74
2023/04/05 09:08:31;;;;;;;8.85;5.03;;;3.70;97.50;;;;;;477597;249;27461;-74
2023/04/05 09:10:32;;;;;;;9.82;5.45;;;3.70;99.90;;;;;;477659;249;27817;-74
2023/04/05 09:12:33;;;;;;;7.70;4.70;;;3.80;99.20;;;;;;477660;249;27408;-74
2023/04/05 09:14:35;;;;;;;5.50;5.00;;;3.80;98.00;;;;;;477600;249;27938;-74
2023/04/05 09:16:36;;;;;;;6.85;5.03;;;4.00;98.10;;;;;;477648;249;27898;-74
2023/04/05 09:18:37;;;;;;;6.00;4.60;;;4.30;95.80;;;;;;477637;249;27920;-75
2023/04/05 09:20:38;;;;;;;4.35;3.85;;;4.30;95.50;;;;;;477667;249;27957;-74
2023/04/05 09:22:40;;;;;;;4.97;4.47;;;4.20;96.20;;;;;;477694;249;27412;-74
2023/04/05 09:24:41;;;;;;;4.28;3.80;;;4.30;94.60;;;;;;477638;249;27438;-74
2023/04/05 09:26:42;;;;;;;4.57;3.83;;;4.30;93.90;;;;;;477631;249;27406;-74
2023/04/05 09:28:43;;;;;;;5.47;4.28;;;4.40;94.10;;;;;;474119;249;36047;-75
2023/04/05 09:30:45;;;;;;;5.28;4.03;;;4.90;99.90;;;;;;477648;249;29143;-75
2023/04/05 09:32:46;;;;;;;5.85;4.75;;;4.90;99.90;;;;;;477665;249;27489;-74
2023/04/05 09:34:47;;;;;;;4.30;3.90;;;5.00;99.90;;;;;;477618;249;27561;-74
2023/04/05 09:36:48;;;;;;;6.50;3.92;;;5.10;99.90;;;;;;477627;249;27513;-74
2023/04/05 09:38:50;;;;;;;4.75;3.95;;;5.20;99.90;;;;;;477609;249;27936;-74
2023/04/05 09:40:51;;;;;;;8.00;4.80;;;5.00;99.90;;;;;;477664;249;27980;-75
2023/04/05 09:42:52;;;;;;;5.25;4.43;;;5.30;99.90;;;;;;477643;249;27964;-74
2023/04/05 09:44:53;;;;;;;7.00;4.28;;;5.30;97.80;;;;;;477601;249;27436;-74
2023/04/05 09:46:55;;;;;;;7.87;4.60;;;5.20;96.60;;;;;;477641;249;27478;-75
2023/04/05 09:48:56;;;;;;;5.30;4.55;;;5.10;97.50;;;;;;477641;249;27434;-74
2023/04/05 09:50:57;;;;;;;6.10;3.92;;;5.10;97.70;;;;;;477636;249;27450;-74
2023/04/05 09:52:58;;;;;;;6.07;4.30;;;4.80;98.50;;;;;;477661;249;27441;-75
2023/04/05 09:55:00;;;;;;;5.90;4.25;;;5.00;99.70;;;;;;477603;249;27450;-75
2023/04/05 09:57:02;;;;;;;4.80;4.30;;;5.00;99.90;;;;;;477630;249;28820;-74
2023/04/05 09:59:03;;;;;;;5.80;3.85;;;5.20;98.00;;;;;;477574;249;27917;-75
2023/04/05 10:01:03;;;;;;;4.40;4.00;;;5.30;99.40;;;;;;477631;249;28095;-74
2023/04/05 10:03:05;;;;;;;5.78;3.75;;;5.30;99.90;;;;;;477631;249;27481;-74
2023/04/05 10:05:06;;;;;;;5.12;4.60;;;5.40;99.90;;;;;;477506;249;27437;-74
2023/04/05 10:07:07;;;;;;;5.35;4.20;;;5.50;98.60;;;;;;477628;249;27389;-74
2023/04/05 10:09:08;;;;;;;5.75;3.97;;;5.50;99.90;;;;;;477632;249;27496;-75
2023/04/05 10:11:10;;;;;;;5.22;4.05;;;5.80;97.30;;;;;;477662;249;27422;-74
2023/04/05 10:13:11;;;;;;;5.57;3.53;;;5.90;96.60;;;;;;477676;249;27429;-74
2023/04/05 10:15:17;;;;;;;6.25;4.53;;;5.70;96.90;;;;;;477610;249;27906;-75
2023/04/05 10:17:13;;;;;;;3.80;3.22;;;5.60;97.90;;;;;;477076;249;27902;-75
2023/04/05 10:19:15;;;;;;;5.22;3.70;;;5.80;97.20;;;;;;477639;249;27429;-75
2023/04/05 10:21:16;;;;;;;3.83;3.17;;;5.80;95.70;;;;;;477666;249;27414;-75
2023/04/05 10:23:17;;;;;;;4.82;3.53;;;5.90;95.40;;;;;;477675;249;27571;-75
2023/04/05 10:25:18;;;;;;;4.50;3.53;;;6.00;94.40;;;;;;477628;249;27441;-75
2023/04/05 10:27:20;;;;;;;4.55;3.20;;;6.10;95.40;;;;;;477681;249;27441;-74
2023/04/05 10:29:21;;;;;;;4.75;3.20;;;5.90;96.30;;;;;;477690;249;27919;-75
2023/04/05 10:31:22;;;;;;;3.00;2.80;;;5.80;96.10;;;;;;477693;249;28709;-75
2023/04/05 10:33:23;;;;;;;3.75;2.85;;;5.80;95.50;;;;;;477699;249;27493;-75